sensor_id;sensor_type;location;lat;lon;timestamp;temperature;humidity
7155;DHT22;3619;53.784;10.440;2022-10-16T00:01:16;14.10;99.90
7155;DHT22;3619;53.784;10.440;2022-10-16T00:03:46;14.10;99.90
7155;DHT22;3619;53.784;10.440;2022-10-16T00:06:14;14.00;99.90
7155;DHT22;3619;53.784;10.440;2022-10-16T00:08:41;14.00;99.90
7155;DHT22;3619;53.784;10.440;2022-10-16T00:11:11;14.00;99.90
7155;DHT22;3619;53.784;10.440;2022-10-16T00:13:46;14.00;99.90
7155;DHT22;3619;53.784;10.440;2022-10-16T00:16:14;14.00;99.90
7155;DHT22;3619;53.784;10.440;2022-10-16T00:18:41;14.00;99.90
7155;DHT22;3619;53.784;10.440;2022-10-16T00:21:10;14.00;99.90
7155;DHT22;3619;53.784;10.440;2022-10-16T00:23:38;13.90;99.90
7155;DHT22;3619;53.784;10.440;2022-10-16T00:26:08;13.90;99.90
7155;DHT22;3619;53.784;10.440;2022-10-16T00:28:35;13.90;99.90
7155;DHT22;3619;53.784;10.440;2022-10-16T00:31:05;13.90;99.90
7155;DHT22;3619;53.784;10.440;2022-10-16T00:33:32;13.90;99.90
7155;DHT22;3619;53.784;10.440;2022-10-16T00:36:02;13.80;99.90
7155;DHT22;3619;53.784;10.440;2022-10-16T00:38:29;13.80;99.90
7155;DHT22;3619;53.784;10.440;2022-10-16T00:40:57;13.80;99.90
7155;DHT22;3619;53.784;10.440;2022-10-16T00:43:36;13.90;99.90
7155;DHT22;3619;53.784;10.440;2022-10-16T00:46:13;13.80;99.90
7155;DHT22;3619;53.784;10.440;2022-10-16T00:48:42;13.80;99.90
7155;DHT22;3619;53.784;10.440;2022-10-16T00:51:09;13.80;99.90
7155;DHT22;3619;53.784;10.440;2022-10-16T00:53:37;13.70;99.90
7155;DHT22;3619;53.784;10.440;2022-10-16T00:56:04;13.70;99.90
7155;DHT22;3619;53.784;10.440;2022-10-16T00:58:31;13.70;99.90
7155;DHT22;3619;53.784;10.440;2022-10-16T01:00:58;13.70;99.90
7155;DHT22;3619;53.784;10.440;2022-10-16T01:03:29;13.70;99.90
7155;DHT22;3619;53.784;10.440;2022-10-16T01:06:05;13.70;99.90
7155;DHT22;3619;53.784;10.440;2022-10-16T01:08:43;13.70;99.90
7155;DHT22;3619;53.784;10.440;2022-10-16T01:11:17;13.60;99.90
7155;DHT22;3619;53.784;10.440;2022-10-16T01:13:50;13.60;99.90
7155;DHT22;3619;53.784;10.440;2022-10-16T01:16:28;13.60;99.90
7155;DHT22;3619;53.784;10.440;2022-10-16T01:19:05;13.50;99.90
7155;DHT22;3619;53.784;10.440;2022-10-16T01:21:37;13.50;99.90
7155;DHT22;3619;53.784;10.440;2022-10-16T01:24:11;13.50;99.90
7155;DHT22;3619;53.784;10.440;2022-10-16T01:27:10;13.50;99.90
7155;DHT22;3619;53.784;10.440;2022-10-16T01:29:43;13.50;99.90
7155;DHT22;3619;53.784;10.440;2022-10-16T01:32:16;13.50;99.90
7155;DHT22;3619;53.784;10.440;2022-10-16T01:34:48;13.50;99.90
7155;DHT22;3619;53.784;10.440;2022-10-16T01:37:24;13.50;99.90
7155;DHT22;3619;53.784;10.440;2022-10-16T01:39:54;13.40;99.90
7155;DHT22;3619;53.784;10.440;2022-10-16T01:42:28;13.50;99.90
7155;DHT22;3619;53.784;10.440;2022-10-16T01:44:56;13.40;99.90
7155;DHT22;3619;53.784;10.440;2022-10-16T01:47:26;13.40;99.90
7155;DHT22;3619;53.784;10.440;2022-10-16T01:49:54;13.30;99.90
7155;DHT22;3619;53.784;10.440;2022-10-16T01:52:24;13.30;99.90
7155;DHT22;3619;53.784;10.440;2022-10-16T01:54:53;13.30;99.90
7155;DHT22;3619;53.784;10.440;2022-10-16T01:57:25;13.30;99.90
7155;DHT22;3619;53.784;10.440;2022-10-16T01:59:55;13.20;99.90
7155;DHT22;3619;53.784;10.440;2022-10-16T02:02:22;13.20;99.90
7155;DHT22;3619;53.784;10.440;2022-10-16T02:04:57;13.20;99.90
7155;DHT22;3619;53.784;10.440;2022-10-16T02:07:25;13.20;99.90
7155;DHT22;3619;53.784;10.440;2022-10-16T02:09:52;13.20;99.90
7155;DHT22;3619;53.784;10.440;2022-10-16T02:12:22;13.10;99.90
7155;DHT22;3619;53.784;10.440;2022-10-16T02:14:53;13.10;99.90
7155;DHT22;3619;53.784;10.440;2022-10-16T02:17:20;13.10;99.90
7155;DHT22;3619;53.784;10.440;2022-10-16T02:19:49;13.00;99.90
7155;DHT22;3619;53.784;10.440;2022-10-16T02:22:21;13.00;99.90
7155;DHT22;3619;53.784;10.440;2022-10-16T02:24:53;13.00;99.90
7155;DHT22;3619;53.784;10.440;2022-10-16T02:27:24;13.00;99.90
7155;DHT22;3619;53.784;10.440;2022-10-16T02:29:56;13.00;99.90
7155;DHT22;3619;53.784;10.440;2022-10-16T02:32:30;13.10;99.90
7155;DHT22;3619;53.784;10.440;2022-10-16T02:34:59;13.00;99.90
7155;DHT22;3619;53.784;10.440;2022-10-16T02:37:27;13.00;99.90
7155;DHT22;3619;53.784;10.440;2022-10-16T02:39:56;13.00;99.90
7155;DHT22;3619;53.784;10.440;2022-10-16T02:42:28;13.00;99.90
7155;DHT22;3619;53.784;10.440;2022-10-16T02:44:57;13.00;99.90
7155;DHT22;3619;53.784;10.440;2022-10-16T02:47:24;13.00;99.90
7155;DHT22;3619;53.784;10.440;2022-10-16T02:49:53;13.00;99.90
7155;DHT22;3619;53.784;10.440;2022-10-16T02:52:19;13.00;99.90
7155;DHT22;3619;53.784;10.440;2022-10-16T02:54:46;12.90;99.90
7155;DHT22;3619;53.784;10.440;2022-10-16T02:57:13;12.90;99.90
7155;DHT22;3619;53.784;10.440;2022-10-16T02:59:42;12.90;99.90
7155;DHT22;3619;53.784;10.440;2022-10-16T03:02:11;12.90;99.90
7155;DHT22;3619;53.784;10.440;2022-10-16T03:04:39;12.90;99.90
7155;DHT22;3619;53.784;10.440;2022-10-16T03:07:05;12.90;99.90
7155;DHT22;3619;53.784;10.440;2022-10-16T03:09:33;12.90;99.90
7155;DHT22;3619;53.784;10.440;2022-10-16T03:12:00;12.80;99.90
7155;DHT22;3619;53.784;10.440;2022-10-16T03:14:26;12.70;99.90
7155;DHT22;3619;53.784;10.440;2022-10-16T03:16:53;12.70;99.90
7155;DHT22;3619;53.784;10.440;2022-10-16T03:19:22;12.70;99.90
7155;DHT22;3619;53.784;10.440;2022-10-16T03:21:49;12.70;99.90
7155;DHT22;3619;53.784;10.440;2022-10-16T03:24:26;12.70;99.90
7155;DHT22;3619;53.784;10.440;2022-10-16T03:26:55;12.60;99.90
7155;DHT22;3619;53.784;10.440;2022-10-16T03:29:23;12.50;99.90
7155;DHT22;3619;53.784;10.440;2022-10-16T03:31:51;12.60;99.90
7155;DHT22;3619;53.784;10.440;2022-10-16T03:34:18;12.50;99.90
7155;DHT22;3619;53.784;10.440;2022-10-16T03:36:46;12.50;99.90
7155;DHT22;3619;53.784;10.440;2022-10-16T03:39:13;12.40;99.90
7155;DHT22;3619;53.784;10.440;2022-10-16T03:41:41;12.40;99.90
7155;DHT22;3619;53.784;10.440;2022-10-16T03:44:08;12.40;99.90
7155;DHT22;3619;53.784;10.440;2022-10-16T03:46:35;12.40;99.90
7155;DHT22;3619;53.784;10.440;2022-10-16T03:49:02;12.40;99.90
7155;DHT22;3619;53.784;10.440;2022-10-16T03:51:29;12.40;99.90
7155;DHT22;3619;53.784;10.440;2022-10-16T03:53:57;12.30;99.90
7155;DHT22;3619;53.784;10.440;2022-10-16T03:56:24;12.30;99.90
7155;DHT22;3619;53.784;10.440;2022-10-16T03:58:53;12.30;99.90
7155;DHT22;3619;53.784;10.440;2022-10-16T04:01:20;12.30;99.90
7155;DHT22;3619;53.784;10.440;2022-10-16T04:03:47;12.30;99.90
7155;DHT22;3619;53.784;10.440;2022-10-16T04:06:13;12.30;99.90
7155;DHT22;3619;53.784;10.440;2022-10-16T04:08:42;12.30;99.90
7155;DHT22;3619;53.784;10.440;2022-10-16T04:11:10;12.30;99.90
7155;DHT22;3619;53.784;10.440;2022-10-16T04:13:37;12.30;99.90
7155;DHT22;3619;53.784;10.440;2022-10-16T04:16:04;12.30;99.90
7155;DHT22;3619;53.784;10.440;2022-10-16T04:18:31;12.30;99.90
7155;DHT22;3619;53.784;10.440;2022-10-16T04:21:02;12.30;99.90
7155;DHT22;3619;53.784;10.440;2022-10-16T04:23:29;12.30;99.90
7155;DHT22;3619;53.784;10.440;2022-10-16T04:25:58;12.30;99.90
7155;DHT22;3619;53.784;10.440;2022-10-16T04:28:27;12.30;99.90
7155;DHT22;3619;53.784;10.440;2022-10-16T04:30:54;12.30;99.90
7155;DHT22;3619;53.784;10.440;2022-10-16T04:33:21;12.30;99.90
7155;DHT22;3619;53.784;10.440;2022-10-16T04:35:48;12.30;99.90
7155;DHT22;3619;53.784;10.440;2022-10-16T04:38:16;12.40;99.90
7155;DHT22;3619;53.784;10.440;2022-10-16T04:40:43;12.30;99.90
7155;DHT22;3619;53.784;10.440;2022-10-16T04:43:10;12.40;99.90
7155;DHT22;3619;53.784;10.440;2022-10-16T04:45:39;12.30;99.90
7155;DHT22;3619;53.784;10.440;2022-10-16T04:48:07;12.30;99.90
7155;DHT22;3619;53.784;10.440;2022-10-16T04:50:34;12.30;99.90
7155;DHT22;3619;53.784;10.440;2022-10-16T04:53:01;12.30;99.90
7155;DHT22;3619;53.784;10.440;2022-10-16T04:55:28;12.30;99.90
7155;DHT22;3619;53.784;10.440;2022-10-16T04:57:55;12.30;99.90
7155;DHT22;3619;53.784;10.440;2022-10-16T05:00:21;12.30;99.90
7155;DHT22;3619;53.784;10.440;2022-10-16T05:02:51;12.20;99.90
7155;DHT22;3619;53.784;10.440;2022-10-16T05:05:18;12.20;99.90
7155;DHT22;3619;53.784;10.440;2022-10-16T05:07:45;12.20;99.90
7155;DHT22;3619;53.784;10.440;2022-10-16T05:10:12;12.20;99.90
7155;DHT22;3619;53.784;10.440;2022-10-16T05:12:39;12.20;99.90
7155;DHT22;3619;53.784;10.440;2022-10-16T05:15:06;12.10;99.90
7155;DHT22;3619;53.784;10.440;2022-10-16T05:17:33;12.10;99.90
7155;DHT22;3619;53.784;10.440;2022-10-16T05:20:02;12.10;99.90
7155;DHT22;3619;53.784;10.440;2022-10-16T05:22:29;12.10;99.90
7155;DHT22;3619;53.784;10.440;2022-10-16T05:24:55;12.00;99.90
7155;DHT22;3619;53.784;10.440;2022-10-16T05:27:22;12.10;99.90
7155;DHT22;3619;53.784;10.440;2022-10-16T05:29:49;12.10;99.90
7155;DHT22;3619;53.784;10.440;2022-10-16T05:32:19;12.10;99.90
7155;DHT22;3619;53.784;10.440;2022-10-16T05:34:47;12.00;99.90
7155;DHT22;3619;53.784;10.440;2022-10-16T05:37:19;12.00;99.90
7155;DHT22;3619;53.784;10.440;2022-10-16T05:39:46;12.10;99.90
7155;DHT22;3619;53.784;10.440;2022-10-16T05:42:13;12.00;99.90
7155;DHT22;3619;53.784;10.440;2022-10-16T05:44:42;12.00;99.90
7155;DHT22;3619;53.784;10.440;2022-10-16T05:47:10;12.00;99.90
7155;DHT22;3619;53.784;10.440;2022-10-16T05:49:39;12.00;99.90
7155;DHT22;3619;53.784;10.440;2022-10-16T05:52:06;12.00;99.90
7155;DHT22;3619;53.784;10.440;2022-10-16T05:54:35;12.00;99.90
7155;DHT22;3619;53.784;10.440;2022-10-16T05:57:02;12.00;99.90
7155;DHT22;3619;53.784;10.440;2022-10-16T05:59:31;12.00;99.90
7155;DHT22;3619;53.784;10.440;2022-10-16T06:01:58;12.00;99.90
7155;DHT22;3619;53.784;10.440;2022-10-16T06:04:25;12.00;99.90
7155;DHT22;3619;53.784;10.440;2022-10-16T06:06:52;12.00;99.90
7155;DHT22;3619;53.784;10.440;2022-10-16T06:09:18;12.00;99.90
7155;DHT22;3619;53.784;10.440;2022-10-16T06:11:46;12.00;99.90
7155;DHT22;3619;53.784;10.440;2022-10-16T06:14:13;12.00;99.90
7155;DHT22;3619;53.784;10.440;2022-10-16T06:16:42;12.10;99.90
7155;DHT22;3619;53.784;10.440;2022-10-16T06:19:08;12.10;99.90
7155;DHT22;3619;53.784;10.440;2022-10-16T06:21:37;12.20;99.90
7155;DHT22;3619;53.784;10.440;2022-10-16T06:24:04;12.20;99.90
7155;DHT22;3619;53.784;10.440;2022-10-16T06:26:31;12.20;99.90
7155;DHT22;3619;53.784;10.440;2022-10-16T06:29:01;12.30;99.90
7155;DHT22;3619;53.784;10.440;2022-10-16T06:31:29;12.20;99.90
7155;DHT22;3619;53.784;10.440;2022-10-16T06:33:57;12.30;99.90
7155;DHT22;3619;53.784;10.440;2022-10-16T06:36:25;12.30;99.90
7155;DHT22;3619;53.784;10.440;2022-10-16T06:38:54;12.30;99.90
7155;DHT22;3619;53.784;10.440;2022-10-16T06:41:22;12.30;99.90
7155;DHT22;3619;53.784;10.440;2022-10-16T06:43:49;12.30;99.90
7155;DHT22;3619;53.784;10.440;2022-10-16T06:46:19;12.30;99.90
7155;DHT22;3619;53.784;10.440;2022-10-16T06:48:49;12.30;99.90
7155;DHT22;3619;53.784;10.440;2022-10-16T06:51:18;12.40;99.90
7155;DHT22;3619;53.784;10.440;2022-10-16T06:53:47;12.40;99.90
7155;DHT22;3619;53.784;10.440;2022-10-16T06:56:16;12.50;99.90
7155;DHT22;3619;53.784;10.440;2022-10-16T06:58:44;12.50;99.90
7155;DHT22;3619;53.784;10.440;2022-10-16T07:01:12;12.50;99.90
7155;DHT22;3619;53.784;10.440;2022-10-16T07:03:44;12.50;99.90
7155;DHT22;3619;53.784;10.440;2022-10-16T07:06:12;12.60;99.90
7155;DHT22;3619;53.784;10.440;2022-10-16T07:08:41;12.70;99.90
7155;DHT22;3619;53.784;10.440;2022-10-16T07:11:10;12.80;99.90
7155;DHT22;3619;53.784;10.440;2022-10-16T07:13:40;12.90;99.90
7155;DHT22;3619;53.784;10.440;2022-10-16T07:16:14;13.00;99.90
7155;DHT22;3619;53.784;10.440;2022-10-16T07:18:46;13.00;99.90
7155;DHT22;3619;53.784;10.440;2022-10-16T07:21:16;13.00;99.90
7155;DHT22;3619;53.784;10.440;2022-10-16T07:23:43;13.10;99.90
7155;DHT22;3619;53.784;10.440;2022-10-16T07:26:10;13.20;99.90
7155;DHT22;3619;53.784;10.440;2022-10-16T07:28:38;13.30;99.90
7155;DHT22;3619;53.784;10.440;2022-10-16T07:31:07;13.50;99.90
7155;DHT22;3619;53.784;10.440;2022-10-16T07:33:38;13.60;99.90
7155;DHT22;3619;53.784;10.440;2022-10-16T07:36:06;13.70;99.90
7155;DHT22;3619;53.784;10.440;2022-10-16T07:38:33;13.90;99.90
7155;DHT22;3619;53.784;10.440;2022-10-16T07:41:02;14.00;99.90
7155;DHT22;3619;53.784;10.440;2022-10-16T07:43:31;14.20;99.90
7155;DHT22;3619;53.784;10.440;2022-10-16T07:45:58;14.20;99.90
7155;DHT22;3619;53.784;10.440;2022-10-16T07:48:27;14.20;99.90
7155;DHT22;3619;53.784;10.440;2022-10-16T07:50:57;14.20;99.90
7155;DHT22;3619;53.784;10.440;2022-10-16T07:53:28;14.20;99.90
7155;DHT22;3619;53.784;10.440;2022-10-16T07:55:58;14.40;99.90
7155;DHT22;3619;53.784;10.440;2022-10-16T07:58:25;14.50;99.90
7155;DHT22;3619;53.784;10.440;2022-10-16T08:00:52;14.40;99.90
7155;DHT22;3619;53.784;10.440;2022-10-16T08:03:21;14.40;99.90
7155;DHT22;3619;53.784;10.440;2022-10-16T08:05:48;14.30;99.90
7155;DHT22;3619;53.784;10.440;2022-10-16T08:08:17;14.30;99.90
7155;DHT22;3619;53.784;10.440;2022-10-16T08:10:45;14.40;99.90
7155;DHT22;3619;53.784;10.440;2022-10-16T08:13:14;14.50;99.90
7155;DHT22;3619;53.784;10.440;2022-10-16T08:15:40;14.50;99.90
7155;DHT22;3619;53.784;10.440;2022-10-16T08:18:08;14.60;99.90
7155;DHT22;3619;53.784;10.440;2022-10-16T08:20:35;14.50;99.90
7155;DHT22;3619;53.784;10.440;2022-10-16T08:23:02;14.50;99.90
7155;DHT22;3619;53.784;10.440;2022-10-16T08:25:29;14.50;99.90
7155;DHT22;3619;53.784;10.440;2022-10-16T08:28:00;14.50;99.90
7155;DHT22;3619;53.784;10.440;2022-10-16T08:30:39;14.50;99.90
7155;DHT22;3619;53.784;10.440;2022-10-16T08:33:29;14.70;99.90
7155;DHT22;3619;53.784;10.440;2022-10-16T08:36:23;14.80;99.90
7155;DHT22;3619;53.784;10.440;2022-10-16T08:39:10;15.00;99.90
7155;DHT22;3619;53.784;10.440;2022-10-16T08:42:09;15.20;99.90
7155;DHT22;3619;53.784;10.440;2022-10-16T08:51:21;15.40;99.90
7155;DHT22;3619;53.784;10.440;2022-10-16T08:53:53;15.50;99.90
7155;DHT22;3619;53.784;10.440;2022-10-16T08:56:21;15.60;99.90
7155;DHT22;3619;53.784;10.440;2022-10-16T08:58:49;15.60;99.90
7155;DHT22;3619;53.784;10.440;2022-10-16T09:01:18;15.60;99.90
7155;DHT22;3619;53.784;10.440;2022-10-16T09:04:03;15.80;99.90
7155;DHT22;3619;53.784;10.440;2022-10-16T09:06:42;15.90;99.90
7155;DHT22;3619;53.784;10.440;2022-10-16T09:12:12;16.10;99.90
7155;DHT22;3619;53.784;10.440;2022-10-16T09:14:59;16.30;99.90
7155;DHT22;3619;53.784;10.440;2022-10-16T09:17:36;16.50;99.90
7155;DHT22;3619;53.784;10.440;2022-10-16T09:20:28;16.60;99.90
7155;DHT22;3619;53.784;10.440;2022-10-16T09:23:10;16.60;99.90
7155;DHT22;3619;53.784;10.440;2022-10-16T09:25:54;16.60;99.90
7155;DHT22;3619;53.784;10.440;2022-10-16T09:28:21;16.70;99.90
7155;DHT22;3619;53.784;10.440;2022-10-16T09:30:49;16.90;99.90
7155;DHT22;3619;53.784;10.440;2022-10-16T09:33:18;17.00;99.90
7155;DHT22;3619;53.784;10.440;2022-10-16T09:35:47;16.90;99.90
7155;DHT22;3619;53.784;10.440;2022-10-16T09:38:28;16.80;99.90
7155;DHT22;3619;53.784;10.440;2022-10-16T09:40:56;17.00;99.90
7155;DHT22;3619;53.784;10.440;2022-10-16T09:43:25;17.00;99.90
7155;DHT22;3619;53.784;10.440;2022-10-16T09:45:58;17.00;99.90
7155;DHT22;3619;53.784;10.440;2022-10-16T09:48:28;17.30;99.90
7155;DHT22;3619;53.784;10.440;2022-10-16T09:50:59;17.40;99.90
7155;DHT22;3619;53.784;10.440;2022-10-16T09:53:38;17.60;99.90
7155;DHT22;3619;53.784;10.440;2022-10-16T09:56:05;17.80;99.90
7155;DHT22;3619;53.784;10.440;2022-10-16T09:58:32;17.80;99.90
7155;DHT22;3619;53.784;10.440;2022-10-16T10:01:00;17.80;99.90
7155;DHT22;3619;53.784;10.440;2022-10-16T10:03:35;17.80;99.90
7155;DHT22;3619;53.784;10.440;2022-10-16T10:06:07;17.80;99.90
7155;DHT22;3619;53.784;10.440;2022-10-16T10:08:56;17.80;99.90
7155;DHT22;3619;53.784;10.440;2022-10-16T10:11:56;17.70;99.90
7155;DHT22;3619;53.784;10.440;2022-10-16T10:14:31;17.60;99.90
7155;DHT22;3619;53.784;10.440;2022-10-16T10:17:13;17.80;99.90
7155;DHT22;3619;53.784;10.440;2022-10-16T10:19:42;17.80;99.90
7155;DHT22;3619;53.784;10.440;2022-10-16T10:22:18;17.80;99.90
7155;DHT22;3619;53.784;10.440;2022-10-16T10:24:57;17.70;99.90
7155;DHT22;3619;53.784;10.440;2022-10-16T10:27:32;17.70;99.90
7155;DHT22;3619;53.784;10.440;2022-10-16T10:30:10;18.00;99.90
7155;DHT22;3619;53.784;10.440;2022-10-16T10:32:54;17.90;99.90
7155;DHT22;3619;53.784;10.440;2022-10-16T10:35:31;18.00;99.90
7155;DHT22;3619;53.784;10.440;2022-10-16T10:38:06;18.10;99.90
7155;DHT22;3619;53.784;10.440;2022-10-16T10:40:48;18.30;99.90
7155;DHT22;3619;53.784;10.440;2022-10-16T10:43:29;18.20;99.90
7155;DHT22;3619;53.784;10.440;2022-10-16T10:46:00;18.10;99.90
7155;DHT22;3619;53.784;10.440;2022-10-16T10:48:52;18.10;99.90
7155;DHT22;3619;53.784;10.440;2022-10-16T10:51:29;18.30;99.90
7155;DHT22;3619;53.784;10.440;2022-10-16T10:54:15;18.50;99.90
7155;DHT22;3619;53.784;10.440;2022-10-16T10:56:51;18.60;99.90
7155;DHT22;3619;53.784;10.440;2022-10-16T11:02:25;18.80;99.90
7155;DHT22;3619;53.784;10.440;2022-10-16T11:05:20;18.80;99.90
7155;DHT22;3619;53.784;10.440;2022-10-16T11:07:54;18.70;99.90
7155;DHT22;3619;53.784;10.440;2022-10-16T11:10:27;18.70;99.90
7155;DHT22;3619;53.784;10.440;2022-10-16T11:13:24;18.70;99.90
7155;DHT22;3619;53.784;10.440;2022-10-16T11:16:21;18.70;99.90
7155;DHT22;3619;53.784;10.440;2022-10-16T11:18:58;18.50;99.90
7155;DHT22;3619;53.784;10.440;2022-10-16T11:21:32;18.30;99.90
7155;DHT22;3619;53.784;10.440;2022-10-16T11:24:09;18.30;99.90
7155;DHT22;3619;53.784;10.440;2022-10-16T11:26:43;18.20;99.90
7155;DHT22;3619;53.784;10.440;2022-10-16T11:29:16;18.20;99.90
7155;DHT22;3619;53.784;10.440;2022-10-16T11:31:49;18.20;99.90
7155;DHT22;3619;53.784;10.440;2022-10-16T11:34:24;18.20;99.90
7155;DHT22;3619;53.784;10.440;2022-10-16T11:36:56;18.20;99.90
7155;DHT22;3619;53.784;10.440;2022-10-16T11:39:26;18.30;99.90
7155;DHT22;3619;53.784;10.440;2022-10-16T11:41:54;18.40;99.90
7155;DHT22;3619;53.784;10.440;2022-10-16T11:44:43;18.40;99.90
7155;DHT22;3619;53.784;10.440;2022-10-16T11:47:25;18.20;99.90
7155;DHT22;3619;53.784;10.440;2022-10-16T11:49:58;18.00;99.90
7155;DHT22;3619;53.784;10.440;2022-10-16T11:52:33;17.90;99.90
7155;DHT22;3619;53.784;10.440;2022-10-16T11:55:08;17.80;99.90
7155;DHT22;3619;53.784;10.440;2022-10-16T11:57:45;17.80;99.90
7155;DHT22;3619;53.784;10.440;2022-10-16T12:00:21;17.60;99.90
7155;DHT22;3619;53.784;10.440;2022-10-16T12:02:56;17.70;99.90
7155;DHT22;3619;53.784;10.440;2022-10-16T12:05:30;17.70;99.90
7155;DHT22;3619;53.784;10.440;2022-10-16T12:08:08;17.60;99.90
7155;DHT22;3619;53.784;10.440;2022-10-16T12:10:37;17.70;99.90
7155;DHT22;3619;53.784;10.440;2022-10-16T12:13:04;18.00;99.90
7155;DHT22;3619;53.784;10.440;2022-10-16T12:15:33;17.90;99.90
7155;DHT22;3619;53.784;10.440;2022-10-16T12:18:00;17.70;99.90
7155;DHT22;3619;53.784;10.440;2022-10-16T12:20:30;17.60;99.90
7155;DHT22;3619;53.784;10.440;2022-10-16T12:23:00;17.50;99.90
7155;DHT22;3619;53.784;10.440;2022-10-16T12:25:29;17.70;99.90
7155;DHT22;3619;53.784;10.440;2022-10-16T12:28:02;17.80;99.90
7155;DHT22;3619;53.784;10.440;2022-10-16T12:30:33;17.80;99.90
7155;DHT22;3619;53.784;10.440;2022-10-16T12:33:02;17.80;99.90
7155;DHT22;3619;53.784;10.440;2022-10-16T12:35:32;17.90;99.90
7155;DHT22;3619;53.784;10.440;2022-10-16T12:38:17;18.10;99.90
7155;DHT22;3619;53.784;10.440;2022-10-16T12:40:45;18.40;99.90
7155;DHT22;3619;53.784;10.440;2022-10-16T12:43:26;18.30;99.90
7155;DHT22;3619;53.784;10.440;2022-10-16T12:46:03;18.30;99.90
7155;DHT22;3619;53.784;10.440;2022-10-16T12:48:39;18.40;99.90
7155;DHT22;3619;53.784;10.440;2022-10-16T12:51:11;18.40;99.90
7155;DHT22;3619;53.784;10.440;2022-10-16T12:53:39;18.50;99.90
7155;DHT22;3619;53.784;10.440;2022-10-16T12:56:14;18.50;99.90
7155;DHT22;3619;53.784;10.440;2022-10-16T12:58:55;18.60;99.90
7155;DHT22;3619;53.784;10.440;2022-10-16T13:01:34;18.70;99.90
7155;DHT22;3619;53.784;10.440;2022-10-16T13:04:40;18.70;99.90
7155;DHT22;3619;53.784;10.440;2022-10-16T13:07:25;18.70;99.90
7155;DHT22;3619;53.784;10.440;2022-10-16T13:10:04;18.60;99.90
7155;DHT22;3619;53.784;10.440;2022-10-16T13:12:46;18.40;99.90
7155;DHT22;3619;53.784;10.440;2022-10-16T13:15:29;18.50;99.90
7155;DHT22;3619;53.784;10.440;2022-10-16T13:18:07;18.10;99.90
7155;DHT22;3619;53.784;10.440;2022-10-16T13:20:50;17.80;99.90
7155;DHT22;3619;53.784;10.440;2022-10-16T13:23:24;17.80;99.90
7155;DHT22;3619;53.784;10.440;2022-10-16T13:26:09;17.70;99.90
7155;DHT22;3619;53.784;10.440;2022-10-16T13:28:41;17.70;99.90
7155;DHT22;3619;53.784;10.440;2022-10-16T13:31:14;17.80;99.90
7155;DHT22;3619;53.784;10.440;2022-10-16T13:33:46;17.80;99.90
7155;DHT22;3619;53.784;10.440;2022-10-16T13:36:20;17.70;99.90
7155;DHT22;3619;53.784;10.440;2022-10-16T13:38:47;17.70;99.90
7155;DHT22;3619;53.784;10.440;2022-10-16T13:41:15;17.50;99.90
7155;DHT22;3619;53.784;10.440;2022-10-16T13:43:45;17.40;99.90
7155;DHT22;3619;53.784;10.440;2022-10-16T13:46:14;17.40;99.90
7155;DHT22;3619;53.784;10.440;2022-10-16T13:48:43;17.40;99.90
7155;DHT22;3619;53.784;10.440;2022-10-16T13:51:13;17.40;99.90
7155;DHT22;3619;53.784;10.440;2022-10-16T13:53:41;17.30;99.90
7155;DHT22;3619;53.784;10.440;2022-10-16T13:56:12;17.30;99.90
7155;DHT22;3619;53.784;10.440;2022-10-16T13:58:39;17.40;99.90
7155;DHT22;3619;53.784;10.440;2022-10-16T14:01:16;17.50;99.90
7155;DHT22;3619;53.784;10.440;2022-10-16T14:03:46;17.50;99.90
7155;DHT22;3619;53.784;10.440;2022-10-16T14:06:15;17.60;99.90
7155;DHT22;3619;53.784;10.440;2022-10-16T14:08:45;17.80;99.90
7155;DHT22;3619;53.784;10.440;2022-10-16T14:11:20;17.90;99.90
7155;DHT22;3619;53.784;10.440;2022-10-16T14:13:49;18.00;99.90
7155;DHT22;3619;53.784;10.440;2022-10-16T14:16:18;18.00;99.90
7155;DHT22;3619;53.784;10.440;2022-10-16T14:18:55;18.00;99.90
7155;DHT22;3619;53.784;10.440;2022-10-16T14:21:22;18.10;99.90
7155;DHT22;3619;53.784;10.440;2022-10-16T14:23:50;18.10;99.90
7155;DHT22;3619;53.784;10.440;2022-10-16T14:26:19;18.20;99.90
7155;DHT22;3619;53.784;10.440;2022-10-16T14:28:48;18.20;99.90
7155;DHT22;3619;53.784;10.440;2022-10-16T14:31:27;18.00;99.90
7155;DHT22;3619;53.784;10.440;2022-10-16T14:33:57;17.80;99.90
7155;DHT22;3619;53.784;10.440;2022-10-16T14:36:25;17.50;99.90
7155;DHT22;3619;53.784;10.440;2022-10-16T14:38:59;17.50;99.90
7155;DHT22;3619;53.784;10.440;2022-10-16T14:41:28;17.50;99.90
7155;DHT22;3619;53.784;10.440;2022-10-16T14:43:57;17.30;99.90
7155;DHT22;3619;53.784;10.440;2022-10-16T14:46:31;17.30;99.90
7155;DHT22;3619;53.784;10.440;2022-10-16T14:49:05;17.20;99.90
7155;DHT22;3619;53.784;10.440;2022-10-16T14:51:41;17.20;99.90
7155;DHT22;3619;53.784;10.440;2022-10-16T14:54:11;17.10;99.90
7155;DHT22;3619;53.784;10.440;2022-10-16T14:56:47;17.20;99.90
7155;DHT22;3619;53.784;10.440;2022-10-16T14:59:17;17.00;99.90
7155;DHT22;3619;53.784;10.440;2022-10-16T15:01:45;16.90;99.90
7155;DHT22;3619;53.784;10.440;2022-10-16T15:04:14;16.80;99.90
7155;DHT22;3619;53.784;10.440;2022-10-16T15:06:41;16.80;99.90
7155;DHT22;3619;53.784;10.440;2022-10-16T15:09:08;16.70;99.90
7155;DHT22;3619;53.784;10.440;2022-10-16T15:11:34;16.70;99.90
7155;DHT22;3619;53.784;10.440;2022-10-16T15:14:01;16.60;99.90
7155;DHT22;3619;53.784;10.440;2022-10-16T15:16:30;16.70;99.90
7155;DHT22;3619;53.784;10.440;2022-10-16T15:18:57;16.70;99.90
7155;DHT22;3619;53.784;10.440;2022-10-16T15:21:27;16.70;99.90
7155;DHT22;3619;53.784;10.440;2022-10-16T15:23:54;16.70;99.90
7155;DHT22;3619;53.784;10.440;2022-10-16T15:26:22;16.60;99.90
7155;DHT22;3619;53.784;10.440;2022-10-16T15:28:49;16.50;99.90
7155;DHT22;3619;53.784;10.440;2022-10-16T15:31:16;16.50;99.90
7155;DHT22;3619;53.784;10.440;2022-10-16T15:33:42;16.50;99.90
7155;DHT22;3619;53.784;10.440;2022-10-16T15:36:09;16.50;99.90
7155;DHT22;3619;53.784;10.440;2022-10-16T15:38:39;16.40;99.90
7155;DHT22;3619;53.784;10.440;2022-10-16T15:41:06;16.40;99.90
7155;DHT22;3619;53.784;10.440;2022-10-16T15:43:33;16.40;99.90
7155;DHT22;3619;53.784;10.440;2022-10-16T15:46:02;16.30;99.90
7155;DHT22;3619;53.784;10.440;2022-10-16T15:48:29;16.20;99.90
7155;DHT22;3619;53.784;10.440;2022-10-16T15:50:56;16.20;99.90
7155;DHT22;3619;53.784;10.440;2022-10-16T15:53:23;16.10;99.90
7155;DHT22;3619;53.784;10.440;2022-10-16T15:55:52;16.00;99.90
7155;DHT22;3619;53.784;10.440;2022-10-16T15:58:19;16.00;99.90
7155;DHT22;3619;53.784;10.440;2022-10-16T16:00:53;15.90;99.90
7155;DHT22;3619;53.784;10.440;2022-10-16T16:03:20;15.80;99.90
7155;DHT22;3619;53.784;10.440;2022-10-16T16:05:47;15.80;99.90
7155;DHT22;3619;53.784;10.440;2022-10-16T16:08:13;15.70;99.90
7155;DHT22;3619;53.784;10.440;2022-10-16T16:10:42;15.70;99.90
7155;DHT22;3619;53.784;10.440;2022-10-16T16:13:11;15.60;99.90
7155;DHT22;3619;53.784;10.440;2022-10-16T16:15:39;15.60;99.90
7155;DHT22;3619;53.784;10.440;2022-10-16T16:18:06;15.50;99.90
7155;DHT22;3619;53.784;10.440;2022-10-16T16:20:34;15.50;99.90
7155;DHT22;3619;53.784;10.440;2022-10-16T16:23:02;15.40;99.90